createdAt,value
2019-01-17T00:01:03.255Z,4.03
2019-01-17T00:03:54.319Z,3.97
2019-01-17T00:06:48.940Z,5.87
2019-01-17T00:09:26.580Z,4.73
2019-01-17T00:12:07.065Z,3.20
2019-01-17T00:14:56.453Z,6.30
2019-01-17T00:17:54.211Z,3.20
2019-01-17T00:20:55.024Z,3.00
2019-01-17T00:23:42.238Z,3.57
2019-01-17T00:26:29.591Z,5.17
2019-01-17T00:29:17.035Z,5.00
2019-01-17T00:32:05.719Z,3.40
2019-01-17T00:35:00.177Z,5.80
2019-01-17T00:37:45.037Z,6.33
2019-01-17T00:40:31.782Z,3.97
2019-01-17T00:43:15.442Z,5.93
2019-01-17T00:46:10.594Z,4.33
2019-01-17T00:48:57.649Z,4.37
2019-01-17T00:52:01.298Z,4.93
2019-01-17T00:54:48.522Z,5.73
2019-01-17T00:57:42.808Z,4.07
2019-01-17T01:00:48.448Z,5.90
2019-01-17T01:03:48.911Z,6.73
2019-01-17T01:06:40.082Z,3.33
2019-01-17T01:09:25.971Z,5.50
2019-01-17T01:12:12.955Z,7.37
2019-01-17T01:15:07.405Z,5.23
2019-01-17T01:17:49.795Z,4.73
2019-01-17T01:20:36.761Z,5.00
2019-01-17T01:23:31.322Z,4.73
2019-01-17T01:26:19.768Z,4.90
2019-01-17T01:29:08.420Z,4.47
2019-01-17T01:32:08.708Z,5.23
2019-01-17T01:35:02.022Z,3.67
2019-01-17T01:37:49.387Z,3.70
2019-01-17T01:40:29.183Z,4.60
2019-01-17T01:43:17.939Z,2.67
2019-01-17T01:46:05.772Z,3.00
2019-01-17T01:48:54.253Z,3.70
2019-01-17T01:51:48.887Z,7.03
2019-01-17T01:54:22.012Z,2.10
2019-01-17T01:56:49.701Z,6.53
2019-01-17T01:59:19.301Z,5.73
2019-01-17T02:01:49.043Z,5.37
2019-01-17T02:04:18.799Z,5.20
2019-01-17T02:06:48.553Z,6.93
2019-01-17T02:09:18.311Z,4.23
2019-01-17T02:11:47.887Z,3.10
2019-01-17T02:14:18.401Z,6.57
2019-01-17T02:16:48.207Z,5.50
2019-01-17T02:19:17.961Z,11.30
2019-01-17T02:21:47.650Z,6.30
2019-01-17T02:24:17.342Z,8.07
2019-01-17T02:26:46.815Z,10.67
2019-01-17T02:29:16.336Z,6.57
2019-01-17T02:31:45.890Z,5.37
2019-01-17T02:34:15.421Z,8.57
2019-01-17T02:36:45.006Z,10.50
2019-01-17T02:39:14.591Z,9.50
2019-01-17T02:41:44.108Z,5.73
2019-01-17T02:44:13.603Z,11.03
2019-01-17T02:46:43.135Z,6.77
2019-01-17T02:49:12.754Z,8.33
2019-01-17T02:51:42.491Z,7.07
2019-01-17T02:54:12.321Z,8.23
2019-01-17T02:56:42.087Z,12.97
2019-01-17T02:59:12.190Z,11.20
2019-01-17T03:01:41.826Z,9.67
2019-01-17T03:04:11.528Z,14.53
2019-01-17T03:06:41.294Z,12.37
2019-01-17T03:09:10.999Z,15.47
2019-01-17T03:11:40.814Z,11.87
2019-01-17T03:14:10.273Z,13.03
2019-01-17T03:16:39.936Z,15.77
2019-01-17T03:19:09.742Z,14.73
2019-01-17T03:21:39.463Z,11.47
2019-01-17T03:24:09.008Z,15.60
2019-01-17T03:26:38.491Z,12.63
2019-01-17T03:29:08.178Z,16.60
2019-01-17T03:31:37.838Z,17.80
2019-01-17T03:34:07.464Z,16.33
2019-01-17T03:36:36.896Z,13.73
2019-01-17T03:39:08.429Z,19.03
2019-01-17T03:41:37.967Z,16.30
2019-01-17T03:44:07.592Z,23.83
2019-01-17T03:46:37.115Z,17.43
2019-01-17T03:49:06.570Z,21.03
2019-01-17T03:51:36.038Z,17.73
2019-01-17T03:54:05.636Z,15.67
2019-01-17T03:56:35.176Z,24.77
2019-01-17T03:59:04.586Z,17.47
2019-01-17T04:01:34.018Z,24.23
2019-01-17T04:04:03.781Z,21.37
2019-01-17T04:06:33.475Z,21.43
2019-01-17T04:09:03.728Z,17.93
2019-01-17T04:11:33.520Z,20.67
2019-01-17T04:14:03.292Z,18.97
2019-01-17T04:16:33.090Z,25.00
2019-01-17T04:19:02.944Z,22.73
2019-01-17T04:21:32.504Z,22.67
2019-01-17T04:24:02.109Z,23.43
2019-01-17T04:26:32.029Z,30.73
2019-01-17T04:29:01.841Z,23.20
2019-01-17T04:31:31.567Z,29.47
2019-01-17T04:34:01.315Z,24.43
2019-01-17T04:36:30.794Z,27.77
2019-01-17T04:39:00.335Z,26.87
2019-01-17T04:41:29.857Z,28.07
2019-01-17T04:43:59.571Z,26.43
2019-01-17T04:46:29.005Z,28.00
2019-01-17T04:53:25.698Z,27.20
2019-01-17T04:55:55.543Z,30.83
2019-01-17T04:58:25.355Z,24.60
2019-01-17T05:00:55.180Z,21.60
2019-01-17T05:03:24.984Z,24.13
2019-01-17T05:05:54.655Z,17.70
2019-01-17T05:08:24.301Z,22.70
2019-01-17T05:10:54.077Z,26.13
2019-01-17T05:13:23.893Z,22.37
2019-01-17T05:15:53.539Z,21.40
2019-01-17T05:18:23.306Z,19.57
2019-01-17T05:20:53.100Z,25.50
2019-01-17T05:23:24.666Z,19.10
2019-01-17T05:25:54.354Z,23.73
2019-01-17T05:28:23.877Z,19.13
2019-01-17T05:30:53.535Z,18.07
2019-01-17T05:33:23.153Z,23.20
2019-01-17T05:35:52.556Z,31.40
2019-01-17T05:38:22.289Z,30.03
2019-01-17T05:40:52.120Z,25.87
2019-01-17T05:43:35.809Z,40.07
2019-01-17T05:46:05.580Z,26.10
2019-01-17T05:48:35.094Z,23.53
2019-01-17T05:51:04.856Z,28.83
2019-01-17T05:53:34.466Z,22.23
2019-01-17T05:56:04.051Z,24.20
2019-01-17T05:58:33.884Z,27.80
2019-01-17T06:01:03.617Z,20.63
2019-01-17T06:03:33.232Z,25.40
2019-01-17T06:06:03.076Z,23.83
2019-01-17T06:08:32.896Z,24.23
2019-01-17T06:11:02.491Z,36.67
2019-01-17T06:13:32.046Z,22.63
2019-01-17T06:16:02.436Z,22.97
2019-01-17T06:18:32.221Z,27.37
2019-01-17T06:21:01.992Z,26.63
2019-01-17T06:23:31.661Z,28.43
2019-01-17T06:26:01.170Z,29.63
2019-01-17T06:28:30.628Z,20.77
2019-01-17T06:31:00.110Z,35.13
2019-01-17T06:33:29.669Z,28.53
2019-01-17T06:35:59.483Z,25.57
2019-01-17T06:38:37.212Z,26.40
2019-01-17T06:41:09.792Z,18.27
2019-01-17T06:43:39.229Z,17.93
2019-01-17T06:46:09.217Z,26.37
2019-01-17T06:48:38.743Z,26.10
2019-01-17T06:51:08.325Z,23.27
2019-01-17T06:53:37.772Z,31.07
2019-01-17T06:56:07.339Z,35.43
2019-01-17T06:58:37.787Z,37.73
2019-01-17T07:01:07.238Z,35.40
2019-01-17T07:03:36.740Z,34.67
2019-01-17T07:06:06.246Z,36.00
2019-01-17T07:08:36.224Z,31.90
2019-01-17T07:11:05.853Z,36.27
2019-01-17T07:13:35.252Z,33.27
2019-01-17T07:16:04.732Z,37.60
2019-01-17T07:18:34.224Z,36.17
2019-01-17T07:21:03.644Z,34.17
2019-01-17T07:23:33.255Z,32.57
2019-01-17T07:26:02.801Z,34.30
2019-01-17T07:28:32.484Z,35.77
2019-01-17T07:31:01.893Z,34.57
2019-01-17T07:33:31.372Z,46.13
2019-01-17T07:36:01.065Z,37.23
2019-01-17T07:38:30.598Z,37.63
2019-01-17T07:41:00.052Z,41.40
2019-01-17T07:43:29.616Z,41.10
2019-01-17T07:45:59.191Z,40.40
2019-01-17T07:48:28.691Z,35.80
2019-01-17T07:50:58.187Z,34.43
2019-01-17T07:53:27.579Z,42.87
2019-01-17T07:55:56.970Z,35.17
2019-01-17T07:58:26.455Z,42.53
2019-01-17T08:00:56.012Z,25.17
2019-01-17T08:03:25.607Z,19.30
2019-01-17T08:05:55.046Z,14.37
2019-01-17T08:08:24.552Z,9.33
2019-01-17T08:10:54.097Z,8.83
2019-01-17T08:13:23.625Z,9.63
2019-01-17T08:15:53.122Z,7.97
2019-01-17T08:18:22.612Z,8.67
2019-01-17T08:20:52.195Z,5.37
2019-01-17T08:23:21.813Z,7.67
2019-01-17T08:25:54.292Z,6.47
2019-01-17T08:28:22.481Z,5.20
2019-01-17T08:30:52.478Z,5.37
2019-01-17T08:33:22.080Z,4.27
2019-01-17T08:35:51.814Z,3.80
2019-01-17T08:38:21.353Z,3.63
2019-01-17T08:40:50.981Z,10.20
2019-01-17T08:43:20.346Z,5.87
2019-01-17T08:45:49.806Z,4.27
2019-01-17T08:48:19.422Z,2.63
2019-01-17T08:50:48.890Z,4.33
2019-01-17T08:53:18.576Z,5.80
2019-01-17T08:55:48.207Z,4.73
2019-01-17T08:58:17.651Z,3.27
2019-01-17T09:00:47.178Z,7.43
2019-01-17T09:03:16.697Z,6.80
2019-01-17T09:05:46.123Z,4.33
2019-01-17T09:08:15.667Z,4.17
2019-01-17T09:10:45.132Z,5.57
2019-01-17T09:13:14.591Z,5.27
2019-01-17T09:15:44.256Z,6.43
2019-01-17T09:18:14.094Z,9.27
2019-01-17T09:20:43.467Z,5.60
2019-01-17T09:23:13.353Z,7.10
2019-01-17T09:25:42.848Z,4.63
2019-01-17T09:28:12.435Z,6.53
2019-01-17T09:30:41.925Z,7.63
2019-01-17T09:33:11.304Z,6.20
2019-01-17T09:35:40.661Z,7.37
2019-01-17T09:38:10.069Z,6.00
2019-01-17T09:40:39.536Z,7.80
2019-01-17T09:43:08.972Z,10.87
2019-01-17T09:45:38.478Z,7.03
2019-01-17T09:48:07.866Z,7.07
2019-01-17T09:50:37.352Z,5.87
2019-01-17T09:53:06.962Z,6.67
2019-01-17T09:55:36.400Z,7.00
2019-01-17T09:58:05.849Z,6.83
2019-01-17T10:00:35.346Z,7.20
2019-01-17T10:03:04.750Z,5.17
2019-01-17T10:05:34.307Z,7.97
2019-01-17T10:08:04.262Z,8.20
2019-01-17T10:10:33.693Z,7.13
2019-01-17T10:13:03.270Z,6.83
2019-01-17T10:15:41.254Z,9.20
2019-01-17T10:18:50.421Z,6.00
2019-01-17T10:21:58.721Z,7.80
2019-01-17T10:25:13.258Z,7.37
2019-01-17T10:28:23.887Z,8.47
2019-01-17T10:31:27.751Z,7.47
2019-01-17T10:34:38.223Z,8.60
2019-01-17T10:37:38.374Z,8.77
2019-01-17T10:40:49.329Z,8.80
2019-01-17T10:44:04.715Z,8.07
2019-01-17T10:47:33.628Z,10.70
2019-01-17T10:50:38.231Z,11.07
2019-01-17T10:53:53.307Z,12.53
2019-01-17T10:56:41.587Z,7.93
2019-01-17T10:59:38.647Z,17.90
2019-01-17T11:02:36.579Z,10.97
2019-01-17T11:05:49.860Z,10.60
2019-01-17T11:09:25.162Z,10.73
2019-01-17T11:12:24.318Z,14.20
2019-01-17T11:15:17.518Z,9.60
2019-01-17T11:18:42.093Z,21.53
2019-01-17T11:21:54.293Z,12.07
2019-01-17T11:24:58.671Z,8.33
2019-01-17T11:28:03.783Z,6.80
2019-01-17T11:30:58.730Z,4.50
2019-01-17T11:33:56.367Z,4.73
2019-01-17T11:37:07.506Z,7.87
2019-01-17T11:40:03.984Z,2.90
2019-01-17T11:43:00.805Z,3.73
2019-01-17T11:45:49.501Z,2.27
2019-01-17T11:48:53.349Z,4.80
2019-01-17T11:51:41.328Z,2.43
2019-01-17T11:55:01.925Z,3.57
2019-01-17T11:58:09.922Z,5.57
2019-01-17T12:01:44.726Z,5.37
2019-01-17T12:04:44.698Z,5.53
2019-01-17T12:07:16.578Z,3.40
2019-01-17T12:09:46.065Z,10.63
2019-01-17T12:12:23.341Z,3.90
2019-01-17T12:14:55.518Z,11.33
2019-01-17T12:17:25.128Z,4.13
2019-01-17T12:19:54.561Z,13.60
2019-01-17T12:22:24.727Z,3.60
2019-01-17T12:24:54.659Z,8.40
2019-01-17T12:27:24.216Z,3.93
2019-01-17T12:29:53.774Z,12.00
2019-01-17T12:32:23.256Z,6.00
2019-01-17T12:34:52.712Z,6.37
2019-01-17T12:37:22.220Z,4.97
2019-01-17T12:39:51.809Z,6.30
2019-01-17T12:42:21.607Z,4.10
2019-01-17T12:44:51.202Z,5.87
2019-01-17T12:51:44.652Z,4.57
2019-01-17T12:54:14.139Z,7.07
2019-01-17T12:56:43.712Z,10.30
2019-01-17T12:59:13.326Z,8.57
2019-01-17T13:01:45.905Z,5.13
2019-01-17T13:04:15.410Z,4.30
2019-01-17T13:06:44.804Z,6.13
2019-01-17T13:09:14.282Z,6.77
2019-01-17T13:11:43.736Z,3.27
2019-01-17T13:14:13.425Z,11.90
2019-01-17T13:16:42.945Z,1.90
2019-01-17T13:22:21.358Z,5.27
2019-01-17T13:24:50.882Z,7.40
2019-01-17T13:27:20.441Z,6.53
2019-01-17T13:29:49.930Z,5.77
2019-01-17T13:39:09.925Z,4.33
2019-01-17T13:41:39.421Z,6.83
2019-01-17T13:44:08.853Z,6.43
2019-01-17T13:46:38.490Z,7.70
2019-01-17T13:49:07.955Z,4.80
2019-01-17T13:51:37.431Z,10.73
2019-01-17T13:54:07.059Z,13.50
2019-01-17T13:56:36.595Z,5.87
2019-01-17T13:59:06.017Z,10.67
2019-01-17T14:01:35.566Z,4.87
2019-01-17T14:04:05.360Z,5.80
2019-01-17T14:06:35.009Z,7.57
2019-01-17T14:09:08.145Z,6.87
2019-01-17T14:11:37.777Z,14.50
2019-01-17T14:14:07.383Z,6.07
2019-01-17T14:16:36.895Z,6.83
2019-01-17T14:19:06.779Z,10.80
2019-01-17T14:21:36.219Z,6.47
2019-01-17T14:24:05.613Z,5.60
2019-01-17T14:26:35.073Z,5.10
2019-01-17T14:29:04.581Z,6.73
2019-01-17T14:31:34.213Z,12.87
2019-01-17T14:34:06.902Z,8.27
2019-01-17T14:36:36.376Z,13.97
2019-01-17T14:39:06.945Z,6.63
2019-01-17T14:41:36.566Z,8.30
2019-01-17T14:44:06.121Z,7.13
2019-01-17T14:46:35.747Z,5.67
2019-01-17T14:49:05.170Z,11.57
2019-01-17T14:51:34.636Z,8.00
2019-01-17T14:54:04.238Z,7.47
2019-01-17T14:56:33.872Z,6.80
2019-01-17T14:59:03.496Z,3.03
2019-01-17T15:01:33.114Z,4.57
2019-01-17T15:04:02.545Z,8.40
2019-01-17T15:06:31.906Z,4.00
2019-01-17T15:09:01.474Z,3.87
2019-01-17T15:11:30.974Z,7.77
2019-01-17T15:14:00.394Z,6.93
2019-01-17T15:16:29.960Z,7.13
2019-01-17T15:18:59.441Z,7.07
2019-01-17T15:21:29.620Z,4.33
2019-01-17T15:23:59.473Z,6.13
2019-01-17T15:26:29.031Z,6.77
2019-01-17T15:28:58.732Z,4.77
2019-01-17T15:31:28.458Z,8.30
2019-01-17T15:33:58.013Z,5.43
2019-01-17T15:36:27.471Z,2.53
2019-01-17T15:38:57.142Z,4.57
2019-01-17T15:41:30.171Z,4.23
2019-01-17T15:43:59.748Z,7.97
2019-01-17T15:46:29.453Z,4.93
2019-01-17T15:48:59.026Z,7.23
2019-01-17T15:51:28.464Z,7.40
2019-01-17T15:53:58.056Z,5.37
2019-01-17T15:56:27.614Z,7.40
2019-01-17T15:59:04.654Z,2.70
2019-01-17T16:01:34.215Z,7.37
2019-01-17T16:07:12.383Z,5.50
2019-01-17T16:09:42.573Z,2.53
2019-01-17T16:12:12.365Z,8.83
2019-01-17T16:14:42.253Z,4.33
2019-01-17T16:17:11.789Z,3.57
2019-01-17T16:19:41.491Z,4.50
2019-01-17T16:22:11.199Z,5.40
2019-01-17T16:24:40.877Z,10.47
2019-01-17T16:27:10.461Z,9.90
2019-01-17T16:29:39.884Z,4.57
2019-01-17T16:32:09.259Z,6.53
2019-01-17T16:34:38.702Z,6.13
2019-01-17T16:37:08.168Z,4.00
2019-01-17T16:39:37.583Z,6.77
2019-01-17T16:42:07.028Z,7.80
2019-01-17T16:44:36.505Z,6.03
2019-01-17T16:47:05.987Z,6.67
2019-01-17T16:49:35.505Z,5.67
2019-01-17T16:52:05.251Z,7.97
2019-01-17T16:54:34.754Z,10.93
2019-01-17T16:57:04.263Z,10.50
2019-01-17T16:59:33.726Z,7.03
2019-01-17T17:02:03.484Z,131.00
2019-01-17T17:04:32.876Z,12.27
2019-01-17T17:07:02.445Z,7.07
2019-01-17T17:09:32.218Z,14.43
2019-01-17T17:12:01.721Z,10.07
2019-01-17T17:14:31.291Z,17.83
2019-01-17T17:17:00.810Z,8.80
2019-01-17T17:19:30.389Z,12.43
2019-01-17T17:22:00.158Z,7.17
2019-01-17T17:24:29.807Z,5.53
2019-01-17T17:26:59.349Z,7.30
2019-01-17T17:29:28.943Z,7.10
2019-01-17T17:31:58.458Z,8.90
2019-01-17T17:38:09.545Z,8.57
2019-01-17T17:40:39.053Z,10.13
2019-01-17T17:43:08.458Z,11.63
2019-01-17T17:45:37.859Z,15.33
2019-01-17T17:52:22.655Z,11.30
2019-01-17T17:54:52.240Z,15.97
2019-01-17T17:57:21.665Z,10.37
2019-01-17T17:59:51.521Z,7.77
2019-01-17T18:02:27.410Z,8.33
2019-01-17T18:04:57.122Z,7.73
2019-01-17T18:07:26.631Z,7.07
2019-01-17T18:09:56.123Z,11.80
2019-01-17T18:12:25.662Z,6.87
2019-01-17T18:14:55.672Z,6.43
2019-01-17T18:17:25.370Z,7.43
2019-01-17T18:19:54.811Z,6.40
2019-01-17T18:22:24.299Z,10.60
2019-01-17T18:24:53.894Z,5.80
2019-01-17T18:27:23.395Z,6.30
2019-01-17T18:29:52.830Z,6.17
2019-01-17T18:32:22.199Z,9.03
2019-01-17T18:38:24.178Z,11.83
2019-01-17T18:40:54.270Z,5.80
2019-01-17T18:43:23.841Z,10.23
2019-01-17T18:45:53.417Z,9.47
2019-01-17T18:48:22.821Z,11.90
2019-01-17T18:50:52.522Z,5.83
2019-01-17T18:53:22.532Z,8.27
2019-01-17T18:55:52.486Z,5.63
2019-01-17T18:58:22.087Z,10.87
2019-01-17T19:00:52.011Z,6.43
2019-01-17T19:03:25.702Z,5.40
2019-01-17T19:05:55.553Z,9.93
2019-01-17T19:08:25.374Z,6.50
2019-01-17T19:10:55.308Z,5.80
2019-01-17T19:13:25.187Z,10.17
2019-01-17T19:15:55.153Z,8.20
2019-01-17T19:18:24.967Z,4.70
2019-01-17T19:20:54.707Z,3.97
2019-01-17T19:23:26.595Z,5.97
2019-01-17T19:25:56.397Z,8.00
2019-01-17T19:28:26.207Z,5.23
2019-01-17T19:30:55.986Z,6.67
2019-01-17T19:33:25.707Z,6.07
2019-01-17T19:35:55.460Z,6.30
2019-01-17T19:38:25.170Z,5.07
2019-01-17T19:40:55.003Z,3.63
2019-01-17T19:43:24.731Z,8.23
2019-01-17T19:45:54.384Z,5.00
2019-01-17T19:48:24.174Z,10.10
2019-01-17T19:50:53.983Z,5.77
2019-01-17T19:53:23.717Z,7.73
2019-01-17T19:55:53.464Z,9.53
2019-01-17T19:58:28.847Z,10.00
2019-01-17T20:00:54.574Z,9.53
2019-01-17T20:03:24.306Z,5.40
2019-01-17T20:05:54.115Z,6.03
2019-01-17T20:08:25.503Z,8.53
2019-01-17T20:10:55.256Z,6.63
2019-01-17T20:13:24.807Z,8.10
2019-01-17T20:15:54.582Z,3.17
2019-01-17T20:18:24.282Z,9.23
2019-01-17T20:20:53.876Z,9.57
2019-01-17T20:23:49.213Z,7.13
2019-01-17T20:26:25.177Z,5.67
2019-01-17T20:28:59.864Z,5.80
2019-01-17T20:31:29.645Z,4.30
2019-01-17T20:33:59.453Z,3.20
2019-01-17T20:36:29.233Z,9.00
2019-01-17T20:38:58.848Z,4.93
2019-01-17T20:41:28.511Z,7.70
2019-01-17T20:43:58.315Z,3.07
2019-01-17T20:46:28.146Z,4.93
2019-01-17T20:49:02.231Z,7.00
2019-01-17T20:51:32.003Z,12.53
2019-01-17T20:54:01.608Z,4.97
2019-01-17T20:56:31.236Z,10.77
2019-01-17T20:59:01.260Z,5.33
2019-01-17T21:02:11.558Z,5.87
2019-01-17T21:04:41.452Z,8.60
2019-01-17T21:07:11.219Z,3.90
2019-01-17T21:09:41.160Z,3.73
2019-01-17T21:12:10.996Z,6.43
2019-01-17T21:14:50.873Z,15.93
2019-01-17T21:17:34.958Z,13.83
2019-01-17T21:20:18.707Z,9.97
2019-01-17T21:22:50.964Z,7.30
2019-01-17T21:25:20.778Z,7.03
2019-01-17T21:27:50.495Z,10.80
2019-01-17T21:30:22.339Z,5.40
2019-01-17T21:32:51.985Z,9.27
2019-01-17T21:35:21.535Z,5.90
2019-01-17T21:37:51.352Z,10.07
2019-01-17T21:40:21.265Z,6.00
2019-01-17T21:42:51.098Z,11.77
2019-01-17T21:45:20.815Z,4.77
2019-01-17T21:47:50.624Z,6.83
2019-01-17T21:50:31.276Z,10.73
2019-01-17T21:53:05.387Z,7.40
2019-01-17T21:55:34.878Z,6.43
2019-01-17T21:58:04.455Z,7.07
2019-01-17T22:00:34.003Z,8.13
2019-01-17T22:03:03.813Z,9.60
2019-01-17T22:05:33.574Z,6.13
2019-01-17T22:08:03.446Z,6.23
2019-01-17T22:10:33.017Z,9.30
2019-01-17T22:13:02.783Z,10.67
2019-01-17T22:15:32.800Z,6.90
2019-01-17T22:18:02.602Z,6.87
2019-01-17T22:20:32.225Z,15.80
2019-01-17T22:23:02.057Z,6.90
2019-01-17T22:25:33.895Z,10.70
2019-01-17T22:28:03.483Z,10.87
2019-01-17T22:30:33.135Z,20.03
2019-01-17T22:33:02.786Z,5.67
2019-01-17T22:35:32.521Z,7.57
2019-01-17T22:38:02.435Z,4.53
2019-01-17T22:40:32.143Z,6.67
2019-01-17T22:43:01.839Z,9.73
2019-01-17T22:45:31.734Z,10.40
2019-01-17T22:48:01.450Z,10.23
2019-01-17T22:50:31.209Z,6.90
2019-01-17T22:53:01.000Z,8.40
2019-01-17T22:55:30.633Z,4.53
2019-01-17T22:58:00.351Z,9.07
2019-01-17T23:00:50.713Z,4.47
2019-01-17T23:03:32.602Z,6.57
2019-01-17T23:06:02.293Z,8.37
2019-01-17T23:08:32.414Z,8.10
2019-01-17T23:11:02.238Z,7.93
2019-01-17T23:13:32.113Z,9.47
2019-01-17T23:16:01.861Z,31.30
2019-01-17T23:23:01.282Z,8.57
2019-01-17T23:25:30.876Z,4.07
2019-01-17T23:28:00.563Z,2.80
2019-01-17T23:30:30.235Z,8.27
2019-01-17T23:32:59.776Z,6.53
2019-01-17T23:35:29.387Z,3.13
2019-01-17T23:37:58.960Z,6.77
2019-01-17T23:40:28.643Z,10.23
2019-01-17T23:42:58.448Z,13.70
2019-01-17T23:45:28.028Z,8.07
2019-01-17T23:47:57.642Z,4.03
2019-01-17T23:50:27.302Z,2.10
2019-01-17T23:52:57.144Z,5.57
2019-01-17T23:55:26.814Z,9.83
2019-01-17T23:57:56.537Z,4.33
